Time;durP1;ratioP1;P1;durP2;ratioP2;P2;SDS_P1;SDS_P2;PMS_P1;PMS_P2;Temp;Humidity;BMP_temperature;BMP_pressure;BME280_temperature;BME280_humidity;BME280_pressure;Samples;Min_cycle;Max_cycle;Signal;HPM_P1;HPM_P2
2022/11/14 00:02:17;;;;;;;43.75;18.83;;;5.60;99.90;;;;;;5048469;28;20029;-69
2022/11/14 00:04:46;;;;;;;41.47;18.17;;;5.60;99.90;;;;;;5049115;28;20036;-69
2022/11/14 00:07:12;;;;;;;42.58;18.27;;;5.60;99.90;;;;;;5048581;28;20544;-68
2022/11/14 00:09:39;;;;;;;43.70;19.17;;;5.60;99.90;;;;;;5050132;28;20044;-68
2022/11/14 00:12:05;;;;;;;45.70;18.77;;;5.60;99.90;;;;;;5037935;28;20037;-68
2022/11/14 00:14:30;;;;;;;44.63;18.40;;;5.50;99.90;;;;;;5021987;28;20484;-69
2022/11/14 00:16:56;;;;;;;41.83;18.73;;;5.50;99.90;;;;;;5044517;28;20540;-69
2022/11/14 00:19:22;;;;;;;42.75;18.42;;;5.40;99.90;;;;;;5046862;28;20035;-68
2022/11/14 00:21:47;;;;;;;41.00;17.85;;;5.30;99.90;;;;;;5049638;28;20041;-69
2022/11/14 00:24:13;;;;;;;40.45;18.00;;;5.30;99.90;;;;;;5033707;28;20039;-68
2022/11/14 00:26:38;;;;;;;38.58;17.48;;;5.20;99.90;;;;;;5032190;28;20086;-69
2022/11/14 00:29:04;;;;;;;36.65;16.17;;;5.20;99.90;;;;;;5030414;28;20752;-68
2022/11/14 00:31:30;;;;;;;37.45;16.40;;;5.10;99.90;;;;;;5031218;28;20029;-68
2022/11/14 00:33:56;;;;;;;33.15;15.60;;;5.00;99.90;;;;;;5029598;28;20033;-68
2022/11/14 00:36:21;;;;;;;35.05;15.82;;;5.00;99.90;;;;;;5039217;28;20486;-68
2022/11/14 00:38:50;;;;;;;33.13;15.27;;;4.90;99.90;;;;;;5048021;28;20152;-68
2022/11/14 00:41:16;;;;;;;32.60;14.27;;;4.90;99.90;;;;;;5048783;28;20094;-70
2022/11/14 00:43:41;;;;;;;34.53;15.25;;;4.90;99.90;;;;;;5049467;28;20033;-68
2022/11/14 00:46:07;;;;;;;35.40;16.05;;;4.90;99.90;;;;;;5032587;28;20033;-68
2022/11/14 00:48:33;;;;;;;37.33;16.58;;;4.80;99.90;;;;;;5033320;28;20036;-68
2022/11/14 00:50:58;;;;;;;38.28;16.60;;;4.70;99.90;;;;;;5044215;28;20043;-69
2022/11/14 00:53:24;;;;;;;37.33;16.13;;;4.70;99.90;;;;;;5044804;28;20072;-68
2022/11/14 00:55:49;;;;;;;39.03;16.25;;;4.70;99.90;;;;;;5048416;28;20504;-68
2022/11/14 00:58:15;;;;;;;38.67;16.80;;;4.70;99.90;;;;;;5048815;28;20040;-68
2022/11/14 01:00:41;;;;;;;38.70;15.93;;;4.60;99.90;;;;;;5041267;28;20117;-68
2022/11/14 01:03:06;;;;;;;37.20;15.85;;;4.60;99.90;;;;;;5038804;28;20048;-71
2022/11/14 01:05:32;;;;;;;37.03;16.13;;;4.60;99.90;;;;;;5045918;28;20039;-66
2022/11/14 01:07:58;;;;;;;38.63;15.68;;;4.50;99.90;;;;;;5042762;28;20113;-69
2022/11/14 01:10:23;;;;;;;36.33;15.40;;;4.50;99.90;;;;;;5028639;28;20823;-69
2022/11/14 01:12:49;;;;;;;33.35;14.75;;;4.50;99.90;;;;;;5030090;28;20103;-68
2022/11/14 01:15:15;;;;;;;39.65;16.52;;;4.50;99.90;;;;;;5037367;28;20036;-69
2022/11/14 01:17:40;;;;;;;37.00;16.10;;;4.50;99.90;;;;;;5046930;28;20756;-66
2022/11/14 01:20:06;;;;;;;39.13;16.55;;;4.50;99.90;;;;;;5041426;28;20030;-68
2022/11/14 01:22:32;;;;;;;36.30;15.55;;;4.40;99.90;;;;;;5044859;28;20045;-68
2022/11/14 01:24:58;;;;;;;36.03;16.38;;;4.40;99.90;;;;;;5048270;28;20095;-69
2022/11/14 01:27:24;;;;;;;34.00;14.52;;;4.30;99.90;;;;;;5047886;28;20029;-69
2022/11/14 01:29:50;;;;;;;39.08;15.85;;;4.30;99.90;;;;;;5036168;28;20067;-69
2022/11/14 01:32:16;;;;;;;36.80;14.93;;;4.20;99.90;;;;;;5027716;28;20482;-65
2022/11/14 01:34:42;;;;;;;36.88;15.68;;;4.20;99.90;;;;;;5039352;28;20086;-68
2022/11/14 01:37:08;;;;;;;40.95;16.48;;;4.20;99.90;;;;;;5047721;28;20056;-69
2022/11/14 01:39:33;;;;;;;36.35;16.23;;;4.20;99.90;;;;;;5047833;28;20494;-67
2022/11/14 01:41:59;;;;;;;38.47;15.63;;;4.20;99.90;;;;;;5046657;28;20732;-71
2022/11/14 01:44:45;;;;;;;38.33;15.25;;;4.20;99.90;;;;;;5027186;28;20021;-68
2022/11/14 01:47:14;;;;;;;40.42;16.38;;;4.20;99.90;;;;;;5021587;28;20143;-68
2022/11/14 01:49:47;;;;;;;38.05;15.18;;;4.20;99.90;;;;;;5032033;28;20033;-68
2022/11/14 01:52:21;;;;;;;41.42;16.67;;;4.20;99.90;;;;;;5034966;28;20052;-69
2022/11/14 01:54:52;;;;;;;42.83;16.80;;;4.10;99.90;;;;;;5044318;28;20037;-68
2022/11/14 01:57:24;;;;;;;39.40;16.00;;;4.20;99.90;;;;;;5040978;28;20533;-69
2022/11/14 01:59:54;;;;;;;39.60;16.27;;;4.10;99.90;;;;;;5043472;28;20029;-69
2022/11/14 02:02:22;;;;;;;42.20;16.48;;;4.10;99.90;;;;;;5035868;28;20040;-69
2022/11/14 02:04:54;;;;;;;40.30;16.48;;;4.10;99.90;;;;;;5047432;28;20041;-69
2022/11/14 02:07:20;;;;;;;41.40;16.52;;;4.10;99.90;;;;;;5046884;28;20609;-68
2022/11/14 02:09:48;;;;;;;41.65;16.52;;;4.10;99.90;;;;;;5029127;28;20102;-68
2022/11/14 02:12:17;;;;;;;37.70;14.85;;;4.10;99.90;;;;;;5036158;28;20061;-68
2022/11/14 02:14:44;;;;;;;41.53;15.32;;;4.10;99.90;;;;;;5031212;28;20157;-68
2022/11/14 02:17:10;;;;;;;39.50;16.25;;;4.10;99.90;;;;;;5039106;28;20667;-68
2022/11/14 02:19:44;;;;;;;40.50;15.93;;;4.20;99.90;;;;;;5046781;28;20037;-68
2022/11/14 02:22:10;;;;;;;38.75;15.15;;;4.20;99.90;;;;;;5044198;28;20048;-68
2022/11/14 02:24:36;;;;;;;37.40;15.50;;;4.20;99.90;;;;;;5027991;28;20048;-68
2022/11/14 02:27:03;;;;;;;40.42;15.57;;;4.20;99.90;;;;;;5024671;28;20048;-67
2022/11/14 02:29:32;;;;;;;38.15;14.38;;;4.20;99.90;;;;;;5044958;28;20040;-69
2022/11/14 02:31:57;;;;;;;34.00;13.60;;;4.10;99.90;;;;;;5037878;28;20033;-69
2022/11/14 02:34:23;;;;;;;32.22;13.02;;;4.20;99.90;;;;;;5043502;28;20036;-69
2022/11/14 02:36:49;;;;;;;34.67;13.82;;;4.20;99.90;;;;;;5047031;28;20081;-70
2022/11/14 02:39:14;;;;;;;35.08;13.95;;;4.20;99.90;;;;;;5043253;28;20202;-69
2022/11/14 02:41:40;;;;;;;34.67;13.38;;;4.10;99.90;;;;;;5040215;28;20029;-70
2022/11/14 02:44:05;;;;;;;32.00;12.90;;;4.10;99.90;;;;;;5029579;28;20056;-70
2022/11/14 02:46:31;;;;;;;34.90;13.30;;;4.10;99.90;;;;;;5034612;28;20036;-70
2022/11/14 02:48:57;;;;;;;33.97;13.15;;;4.00;99.90;;;;;;5051290;28;20060;-69
2022/11/14 02:51:22;;;;;;;30.05;12.75;;;4.00;99.90;;;;;;5051060;28;20145;-69
2022/11/14 02:53:48;;;;;;;30.40;12.30;;;4.00;99.90;;;;;;5048036;28;21825;-68
2022/11/14 02:56:13;;;;;;;30.95;12.00;;;3.90;99.90;;;;;;5037719;28;20041;-68
2022/11/14 02:58:39;;;;;;;29.38;12.75;;;3.90;99.90;;;;;;5044997;28;20047;-69
2022/11/14 03:01:05;;;;;;;32.20;12.88;;;3.80;99.90;;;;;;5035636;28;20048;-68
2022/11/14 03:03:30;;;;;;;31.33;12.05;;;3.80;99.90;;;;;;5031019;28;20037;-68
2022/11/14 03:05:59;;;;;;;27.25;11.75;;;3.60;99.90;;;;;;5032232;28;20030;-68
2022/11/14 03:08:25;;;;;;;31.08;13.55;;;3.70;99.90;;;;;;5026278;28;20066;-68
2022/11/14 03:10:51;;;;;;;29.23;12.95;;;3.50;99.90;;;;;;5037183;28;20034;-68
2022/11/14 03:13:16;;;;;;;28.52;12.75;;;3.10;99.90;;;;;;5035814;28;20029;-68
2022/11/14 03:15:42;;;;;;;29.25;11.77;;;2.90;99.90;;;;;;5063955;28;20032;-68
2022/11/14 03:18:08;;;;;;;28.00;12.73;;;2.80;99.90;;;;;;5045883;28;20390;-71
2022/11/14 03:20:34;;;;;;;31.48;12.27;;;2.80;99.90;;;;;;5045373;28;20025;-67
2022/11/14 03:22:59;;;;;;;29.85;12.35;;;2.90;99.90;;;;;;5031616;28;20409;-68
2022/11/14 03:25:25;;;;;;;29.92;11.65;;;2.90;99.90;;;;;;5040716;28;20029;-67
2022/11/14 03:27:51;;;;;;;29.92;12.18;;;3.00;99.90;;;;;;5031713;28;20470;-67
2022/11/14 03:30:16;;;;;;;31.45;13.85;;;3.00;99.90;;;;;;5041747;28;20068;-68
2022/11/14 03:32:42;;;;;;;30.67;12.93;;;2.90;99.90;;;;;;5051080;28;20043;-66
2022/11/14 03:35:09;;;;;;;29.80;11.75;;;2.70;99.90;;;;;;5039207;28;20473;-68
2022/11/14 03:37:34;;;;;;;29.70;11.27;;;2.80;99.90;;;;;;5050302;28;20029;-66
2022/11/14 03:40:00;;;;;;;32.10;12.98;;;3.00;99.90;;;;;;5044471;28;20029;-67
2022/11/14 03:42:25;;;;;;;36.15;14.13;;;3.30;99.90;;;;;;5045360;28;20029;-67
2022/11/14 03:44:51;;;;;;;41.08;15.10;;;3.50;99.90;;;;;;5043731;28;20029;-68
2022/11/14 03:47:17;;;;;;;41.80;15.57;;;3.70;99.90;;;;;;5048930;28;20082;-66
2022/11/14 03:49:43;;;;;;;43.40;15.85;;;3.80;99.90;;;;;;5028220;28;20420;-68
2022/11/14 03:52:10;;;;;;;37.83;14.93;;;3.80;99.90;;;;;;5040364;28;20417;-68
2022/11/14 03:54:36;;;;;;;38.78;15.35;;;3.90;99.90;;;;;;5039361;28;20067;-68
2022/11/14 03:57:02;;;;;;;37.50;14.65;;;3.90;99.90;;;;;;5029231;28;20082;-67
2022/11/14 03:59:28;;;;;;;36.10;13.77;;;3.90;99.90;;;;;;5045664;28;20037;-68
2022/11/14 04:01:54;;;;;;;35.30;14.43;;;3.90;99.90;;;;;;5030593;28;20317;-69
2022/11/14 04:04:19;;;;;;;36.80;14.60;;;3.90;99.90;;;;;;5029511;28;20113;-67
2022/11/14 04:06:45;;;;;;;33.50;13.95;;;4.00;99.90;;;;;;5031132;28;20114;-68
2022/11/14 04:09:11;;;;;;;35.20;14.02;;;4.00;99.90;;;;;;5030846;28;20037;-71
2022/11/14 04:11:36;;;;;;;34.28;13.70;;;4.10;99.90;;;;;;5030118;28;20033;-68
2022/11/14 04:14:02;;;;;;;34.40;14.43;;;4.10;99.90;;;;;;5030860;28;20546;-65
2022/11/14 04:16:28;;;;;;;34.10;14.45;;;4.20;99.90;;;;;;5030309;28;20410;-70
2022/11/14 04:18:53;;;;;;;38.63;15.00;;;4.20;99.90;;;;;;5030034;28;20463;-68
2022/11/14 04:21:19;;;;;;;33.38;13.27;;;4.30;99.90;;;;;;5030290;28;20458;-69
2022/11/14 04:23:44;;;;;;;34.58;14.40;;;4.30;99.90;;;;;;5029405;28;20140;-69
2022/11/14 04:26:10;;;;;;;38.25;15.38;;;4.40;99.90;;;;;;5029869;28;20064;-68
2022/11/14 04:28:36;;;;;;;32.95;14.05;;;4.40;99.90;;;;;;5029895;28;20518;-67
2022/11/14 04:31:01;;;;;;;34.45;13.50;;;4.40;99.90;;;;;;5030205;28;20382;-68
2022/11/14 04:33:27;;;;;;;29.10;12.18;;;4.40;99.90;;;;;;5030200;28;20029;-68
2022/11/14 04:35:53;;;;;;;30.80;13.18;;;4.40;99.90;;;;;;5030347;28;20118;-69
2022/11/14 04:38:18;;;;;;;32.53;13.85;;;4.40;99.90;;;;;;5029432;28;20042;-67
2022/11/14 04:40:51;;;;;;;32.35;13.45;;;4.40;99.90;;;;;;5029470;28;20053;-69
2022/11/14 04:43:18;;;;;;;31.48;13.48;;;4.40;99.90;;;;;;5030048;28;20104;-74
2022/11/14 04:45:44;;;;;;;29.85;12.95;;;4.40;99.90;;;;;;5030520;28;20076;-68
2022/11/14 04:48:09;;;;;;;28.77;12.68;;;4.40;99.90;;;;;;5030383;28;20033;-67
2022/11/14 04:50:35;;;;;;;32.47;13.48;;;4.40;99.90;;;;;;5028189;28;20152;-67
2022/11/14 04:53:01;;;;;;;28.65;13.07;;;4.40;99.90;;;;;;5030452;28;20034;-67
2022/11/14 04:55:26;;;;;;;31.05;12.38;;;4.40;99.90;;;;;;5028376;28;20037;-68
2022/11/14 04:57:54;;;;;;;27.92;11.90;;;4.30;99.90;;;;;;5029675;28;20029;-66
2022/11/14 05:00:20;;;;;;;29.90;12.95;;;4.30;99.90;;;;;;5022371;28;20477;-69
2022/11/14 05:02:46;;;;;;;30.60;12.80;;;4.30;99.90;;;;;;5036118;28;20146;-69
2022/11/14 05:05:12;;;;;;;30.25;12.80;;;4.40;99.90;;;;;;5042429;28;20495;-67
2022/11/14 05:07:37;;;;;;;29.27;12.55;;;4.30;99.90;;;;;;5033041;28;20031;-70
2022/11/14 05:10:04;;;;;;;30.65;12.65;;;4.30;99.90;;;;;;5028626;28;20478;-66
2022/11/14 05:12:30;;;;;;;28.38;11.93;;;4.30;99.90;;;;;;5028465;28;20045;-69
2022/11/14 05:14:55;;;;;;;30.73;12.52;;;4.20;99.90;;;;;;5030019;28;20112;-68
2022/11/14 05:17:21;;;;;;;28.33;11.80;;;3.90;99.90;;;;;;5029222;28;20489;-66
2022/11/14 05:19:47;;;;;;;27.88;11.82;;;4.00;99.90;;;;;;5029691;28;20482;-67
2022/11/14 05:22:12;;;;;;;33.58;13.20;;;4.10;99.90;;;;;;5029473;28;20058;-70
2022/11/14 05:24:38;;;;;;;27.67;11.68;;;4.10;99.90;;;;;;5028105;28;20036;-70
2022/11/14 05:27:04;;;;;;;29.73;12.82;;;4.20;99.90;;;;;;5029946;28;20032;-70
2022/11/14 05:29:29;;;;;;;26.67;12.18;;;4.20;99.90;;;;;;5029001;28;20588;-69
2022/11/14 05:31:56;;;;;;;26.67;11.88;;;4.30;99.90;;;;;;5029558;28;20034;-70
2022/11/14 05:34:22;;;;;;;29.60;12.07;;;4.30;99.90;;;;;;5028532;28;20172;-68
2022/11/14 05:36:48;;;;;;;29.63;12.40;;;4.30;99.90;;;;;;5029348;28;20116;-68
2022/11/14 05:39:14;;;;;;;25.38;11.70;;;4.20;99.90;;;;;;5028612;28;20462;-69
2022/11/14 05:41:39;;;;;;;31.00;12.98;;;4.20;99.90;;;;;;5027933;28;20170;-69
2022/11/14 05:44:05;;;;;;;29.60;12.45;;;4.30;99.90;;;;;;5028086;28;20478;-68
2022/11/14 05:46:31;;;;;;;31.00;12.95;;;4.30;99.90;;;;;;5044205;28;20037;-68
2022/11/14 05:48:57;;;;;;;32.45;13.57;;;4.30;99.90;;;;;;5046645;28;20409;-67
2022/11/14 05:51:22;;;;;;;27.25;12.35;;;4.40;99.90;;;;;;5038694;28;20033;-68
2022/11/14 05:53:48;;;;;;;27.55;12.18;;;4.40;99.90;;;;;;5025886;28;20099;-68
2022/11/14 05:56:14;;;;;;;27.88;12.10;;;4.40;99.90;;;;;;5028559;28;20032;-70
2022/11/14 05:58:40;;;;;;;26.98;12.38;;;4.40;99.90;;;;;;5027241;28;20025;-69
2022/11/14 06:01:13;;;;;;;27.45;12.23;;;4.50;99.90;;;;;;5028841;28;20486;-69
2022/11/14 06:03:41;;;;;;;26.50;12.73;;;4.60;99.90;;;;;;5027658;28;20636;-70
2022/11/14 06:06:09;;;;;;;27.17;11.80;;;4.60;99.90;;;;;;5025607;28;20414;-68
2022/11/14 06:08:35;;;;;;;25.25;11.20;;;4.60;99.90;;;;;;5027093;28;20494;-68
2022/11/14 06:11:09;;;;;;;31.23;12.35;;;4.70;99.90;;;;;;5026132;28;20048;-70
2022/11/14 06:13:35;;;;;;;27.70;12.60;;;4.80;99.90;;;;;;5021758;28;20036;-71
2022/11/14 06:16:07;;;;;;;29.00;12.75;;;4.80;99.90;;;;;;5027434;28;20032;-70
2022/11/14 06:18:33;;;;;;;27.67;12.18;;;4.90;99.90;;;;;;5022589;28;20030;-69
2022/11/14 06:21:01;;;;;;;30.15;12.88;;;4.90;99.90;;;;;;5026923;28;20053;-69
2022/11/14 06:23:27;;;;;;;28.08;12.32;;;4.90;99.90;;;;;;5027590;28;20074;-67
2022/11/14 06:26:01;;;;;;;29.70;12.45;;;5.00;99.90;;;;;;5039731;28;20025;-68
2022/11/14 06:28:27;;;;;;;29.90;12.95;;;5.00;99.90;;;;;;5039138;28;20531;-67
2022/11/14 06:31:01;;;;;;;25.85;11.48;;;5.00;99.90;;;;;;5034925;28;20390;-68
2022/11/14 06:33:28;;;;;;;28.92;12.23;;;5.00;99.90;;;;;;5043260;28;20037;-68
2022/11/14 06:36:05;;;;;;;27.88;12.48;;;5.10;99.90;;;;;;5048374;28;20025;-69
2022/11/14 06:38:32;;;;;;;29.15;12.65;;;5.10;99.90;;;;;;5044145;28;20398;-66
2022/11/14 06:41:10;;;;;;;32.13;13.23;;;5.10;99.90;;;;;;5038418;28;20116;-69
2022/11/14 06:43:41;;;;;;;28.55;12.93;;;5.10;99.90;;;;;;5028404;28;20109;-68
2022/11/14 06:46:09;;;;;;;30.13;12.15;;;5.00;99.90;;;;;;5026700;28;20110;-67
2022/11/14 06:48:35;;;;;;;32.28;13.07;;;5.00;99.90;;;;;;5027597;28;20041;-67
2022/11/14 06:51:02;;;;;;;26.23;11.40;;;5.10;99.90;;;;;;5029392;28;20072;-66
2022/11/14 06:53:30;;;;;;;24.92;10.80;;;4.60;99.90;;;;;;5027495;28;20033;-68
2022/11/14 06:56:14;;;;;;;26.00;12.15;;;4.20;99.90;;;;;;5028537;28;20037;-67
2022/11/14 06:58:42;;;;;;;27.85;12.05;;;3.80;99.90;;;;;;5026885;28;20061;-68
2022/11/14 07:01:13;;;;;;;31.00;12.15;;;3.70;99.90;;;;;;5027983;28;20112;-69
2022/11/14 07:03:40;;;;;;;28.92;12.85;;;3.90;99.90;;;;;;5023141;28;20502;-69
2022/11/14 07:06:06;;;;;;;31.90;12.55;;;4.10;99.90;;;;;;5025792;28;20059;-67
2022/11/14 07:08:33;;;;;;;31.25;12.70;;;4.30;99.90;;;;;;5026814;28;20438;-67
2022/11/14 07:11:03;;;;;;;30.80;13.60;;;4.60;99.90;;;;;;5025358;28;20145;-67
2022/11/14 07:13:30;;;;;;;23.00;9.68;;;4.70;99.90;;;;;;5026122;28;20471;-67
2022/11/14 07:15:55;;;;;;;29.58;12.68;;;4.80;99.90;;;;;;5028113;28;20037;-67
2022/11/14 07:18:21;;;;;;;27.98;11.60;;;5.00;99.90;;;;;;5028212;28;20036;-67
2022/11/14 07:20:47;;;;;;;28.85;12.75;;;5.10;99.90;;;;;;5027353;28;20152;-67
2022/11/14 07:23:14;;;;;;;27.75;12.55;;;5.10;99.90;;;;;;5027867;28;20418;-67
2022/11/14 07:25:40;;;;;;;31.45;12.98;;;5.20;99.90;;;;;;5026333;28;20036;-68
2022/11/14 07:28:06;;;;;;;27.92;11.80;;;5.30;99.90;;;;;;5023903;28;20120;-67
2022/11/14 07:30:32;;;;;;;28.55;11.68;;;5.40;99.90;;;;;;5027232;28;20037;-67
2022/11/14 07:32:58;;;;;;;28.05;12.25;;;5.50;99.90;;;;;;5028150;28;20516;-68
2022/11/14 07:35:25;;;;;;;27.92;12.30;;;5.60;99.90;;;;;;5031802;28;20041;-73
2022/11/14 07:37:51;;;;;;;26.23;11.63;;;5.70;99.90;;;;;;5031235;28;20386;-66
2022/11/14 07:40:18;;;;;;;26.50;11.07;;;5.80;99.90;;;;;;5031623;28;20055;-65
2022/11/14 07:42:43;;;;;;;25.90;12.07;;;5.80;99.90;;;;;;5029913;28;20526;-67
2022/11/14 07:45:09;;;;;;;27.55;11.25;;;5.90;99.90;;;;;;5031440;28;20038;-69
2022/11/14 07:47:35;;;;;;;26.15;11.52;;;5.90;99.90;;;;;;5030299;28;20394;-67
2022/11/14 07:50:02;;;;;;;27.05;11.35;;;5.90;99.90;;;;;;5031210;28;20071;-69
2022/11/14 07:52:30;;;;;;;25.00;11.57;;;6.00;99.90;;;;;;5029263;28;20616;-73
2022/11/14 07:54:56;;;;;;;26.92;10.80;;;6.10;99.90;;;;;;5024598;28;20034;-68
2022/11/14 07:57:21;;;;;;;23.17;10.13;;;6.20;99.90;;;;;;5027999;28;20044;-68
2022/11/14 07:59:47;;;;;;;26.25;11.40;;;6.30;99.90;;;;;;5025119;28;20709;-67
2022/11/14 08:02:13;;;;;;;26.20;11.10;;;6.50;99.90;;;;;;5038473;28;20390;-68
2022/11/14 08:04:42;;;;;;;25.33;11.00;;;6.60;99.90;;;;;;5049657;28;20037;-69
2022/11/14 08:07:08;;;;;;;26.25;10.73;;;6.80;99.90;;;;;;5049087;28;20032;-68
2022/11/14 08:09:34;;;;;;;25.67;11.13;;;6.90;99.90;;;;;;5032367;28;20036;-70
2022/11/14 08:12:00;;;;;;;22.38;10.10;;;7.10;99.90;;;;;;5033707;28;20033;-70
2022/11/14 08:14:25;;;;;;;25.90;10.38;;;7.20;99.90;;;;;;5035647;28;20417;-74
2022/11/14 08:16:51;;;;;;;27.30;12.50;;;7.30;99.90;;;;;;5042585;28;20036;-70
2022/11/14 08:19:17;;;;;;;26.90;11.60;;;7.30;99.90;;;;;;5030881;28;20039;-68
2022/11/14 08:21:43;;;;;;;25.38;11.00;;;7.40;99.90;;;;;;5029747;28;20121;-68
2022/11/14 08:24:09;;;;;;;19.95;9.75;;;7.40;99.90;;;;;;5032088;28;20041;-70
2022/11/14 08:26:34;;;;;;;25.40;10.85;;;7.40;99.90;;;;;;5033406;28;20437;-69
2022/11/14 08:29:00;;;;;;;24.15;10.60;;;7.50;99.90;;;;;;5029437;28;20105;-70
2022/11/14 08:31:26;;;;;;;24.58;10.45;;;7.60;99.90;;;;;;5044035;28;20389;-69
2022/11/14 08:33:52;;;;;;;24.08;11.45;;;7.60;99.90;;;;;;5043694;28;20688;-68
2022/11/14 08:36:18;;;;;;;24.30;10.85;;;7.60;99.90;;;;;;5030243;28;20034;-69
2022/11/14 08:38:44;;;;;;;28.40;12.02;;;7.70;99.90;;;;;;5028895;28;20034;-70
2022/11/14 08:41:10;;;;;;;29.83;12.18;;;7.70;99.90;;;;;;5028455;28;20033;-71
2022/11/14 08:43:35;;;;;;;27.00;11.85;;;7.70;99.90;;;;;;5029076;28;20043;-69
2022/11/14 08:46:03;;;;;;;26.35;12.00;;;7.80;99.90;;;;;;5030581;28;20037;-69
2022/11/14 08:48:29;;;;;;;21.83;10.93;;;7.80;99.90;;;;;;5030104;28;20036;-76
2022/11/14 08:50:55;;;;;;;25.55;10.82;;;7.90;99.90;;;;;;5029960;28;20061;-70
2022/11/14 08:53:21;;;;;;;25.60;9.93;;;7.90;99.90;;;;;;5029768;28;20075;-70
2022/11/14 08:55:47;;;;;;;25.75;11.05;;;8.00;99.90;;;;;;5029551;28;20037;-68
2022/11/14 08:58:14;;;;;;;25.40;11.13;;;8.20;99.90;;;;;;5030089;28;20029;-70
2022/11/14 09:00:40;;;;;;;26.73;11.65;;;8.40;99.90;;;;;;5028326;28;20048;-71
2022/11/14 09:03:12;;;;;;;25.10;11.65;;;8.40;99.90;;;;;;5030210;28;20045;-70
2022/11/14 09:05:37;;;;;;;22.92;10.38;;;8.50;99.90;;;;;;5028942;28;20136;-69
2022/11/14 09:08:03;;;;;;;29.30;12.63;;;8.60;99.90;;;;;;5030021;28;20100;-69
2022/11/14 09:10:29;;;;;;;25.38;11.68;;;8.80;99.90;;;;;;5028814;28;20045;-76
2022/11/14 09:12:59;;;;;;;23.40;10.52;;;9.20;99.90;;;;;;5028632;28;20037;-71
2022/11/14 09:15:29;;;;;;;30.58;11.75;;;9.60;99.90;;;;;;5030156;28;20417;-69
2022/11/14 09:17:55;;;;;;;22.77;10.95;;;9.70;99.90;;;;;;5043909;28;20045;-68
2022/11/14 09:20:26;;;;;;;25.13;11.63;;;9.80;99.90;;;;;;5029846;28;20483;-70
2022/11/14 09:22:52;;;;;;;23.63;10.43;;;9.90;99.90;;;;;;5027427;28;20041;-69
2022/11/14 09:25:19;;;;;;;23.50;10.10;;;9.80;99.90;;;;;;5029715;28;20190;-71
2022/11/14 09:27:45;;;;;;;22.90;9.70;;;10.00;99.90;;;;;;5027885;28;20740;-70
2022/11/14 09:30:11;;;;;;;20.67;9.95;;;10.40;99.90;;;;;;5029251;28;20031;-71
2022/11/14 09:32:37;;;;;;;29.00;15.70;;;10.60;99.90;;;;;;5028556;28;20106;-69
2022/11/14 09:35:03;;;;;;;55.72;29.92;;;10.80;99.90;;;;;;5029322;28;20466;-71
2022/11/14 09:37:28;;;;;;;21.75;11.60;;;11.00;99.90;;;;;;5029465;28;20053;-71
2022/11/14 09:39:54;;;;;;;21.88;9.93;;;11.00;99.90;;;;;;5028641;28;20032;-72
2022/11/14 09:42:44;;;;;;;23.42;10.35;;;10.90;99.90;;;;;;5027994;28;20466;-72
2022/11/14 09:45:13;;;;;;;23.65;9.27;;;10.80;99.90;;;;;;5029195;28;20033;-72
2022/11/14 09:47:52;;;;;;;16.83;8.43;;;10.70;99.90;;;;;;5028313;28;20136;-71
2022/11/14 09:50:26;;;;;;;17.90;8.68;;;10.70;99.90;;;;;;5028314;28;20037;-71
2022/11/14 09:53:19;;;;;;;16.48;7.22;;;10.70;99.90;;;;;;5028525;28;20033;-71
2022/11/14 09:55:44;;;;;;;19.85;8.10;;;11.00;99.90;;;;;;5028018;28;20036;-69
2022/11/14 09:58:17;;;;;;;18.05;8.23;;;11.40;99.90;;;;;;5027695;28;20030;-70
2022/11/14 10:00:52;;;;;;;19.77;8.65;;;11.70;99.90;;;;;;5028378;28;20029;-72
2022/11/14 10:04:07;;;;;;;16.67;8.00;;;11.80;99.90;;;;;;5027794;28;20383;-70
2022/11/14 10:06:48;;;;;;;18.58;7.25;;;11.50;99.90;;;;;;4987961;28;20046;-76
2022/11/14 10:09:52;;;;;;;13.57;5.80;;;11.30;99.90;;;;;;5009345;28;20029;-72
2022/11/14 10:12:25;;;;;;;13.02;5.63;;;11.10;99.90;;;;;;5008994;28;20042;-72
2022/11/14 10:15:06;;;;;;;13.02;5.60;;;10.90;99.90;;;;;;5007175;28;20033;-71
2022/11/14 10:17:55;;;;;;;15.48;6.43;;;10.80;99.90;;;;;;5009147;28;20030;-70
2022/11/14 10:20:33;;;;;;;12.10;6.00;;;10.70;99.90;;;;;;5017730;28;20075;-70
2022/11/14 10:23:12;;;;;;;11.77;6.22;;;10.70;99.90;;;;;;5027931;28;20119;-72
2022/11/14 10:26:00;;;;;;;13.27;6.22;;;10.90;99.90;;;;;;5027856;28;20104;-74
2022/11/14 10:28:55;;;;;;;14.23;6.00;;;11.30;99.90;;;;;;5028546;28;20041;-71
2022/11/14 10:31:36;;;;;;;13.70;6.00;;;11.50;99.90;;;;;;5028640;28;20026;-71
2022/11/14 10:34:06;;;;;;;;;;;11.30;99.90;;;;;;5026791;28;20029;-70
2022/11/14 10:36:37;;;;;;;16.20;6.10;;;11.00;99.90;;;;;;5028561;28;19909;-71
2022/11/14 10:39:31;;;;;;;14.75;6.65;;;10.80;99.90;;;;;;5028295;28;20041;-69
2022/11/14 10:42:02;;;;;;;17.65;6.30;;;10.70;99.90;;;;;;5027535;28;20026;-71
2022/11/14 10:44:42;;;;;;;14.98;5.68;;;10.60;99.90;;;;;;5028727;28;20486;-71
2022/11/14 10:47:15;;;;;;;11.38;5.25;;;10.70;99.90;;;;;;5028924;28;20025;-70
2022/11/14 10:49:43;;;;;;;10.77;4.95;;;10.70;99.90;;;;;;5027547;28;20485;-71
2022/11/14 10:52:13;;;;;;;11.70;4.95;;;10.80;99.90;;;;;;5028509;28;20108;-73
2022/11/14 10:54:52;;;;;;;10.45;4.18;;;10.80;99.90;;;;;;5026503;28;20560;-74
2022/11/14 10:57:20;;;;;;;8.93;3.60;;;10.80;99.90;;;;;;5028612;28;20414;-72
2022/11/14 10:59:46;;;;;;;12.95;5.10;;;10.80;99.90;;;;;;5027637;28;20026;-70
2022/11/14 11:02:13;;;;;;;9.82;4.32;;;10.80;99.90;;;;;;5026963;28;20421;-69
2022/11/14 11:04:41;;;;;;;9.02;4.40;;;10.90;99.90;;;;;;5027362;28;20545;-76
2022/11/14 11:07:06;;;;;;;8.00;3.70;;;11.00;99.90;;;;;;5029033;28;20068;-70
2022/11/14 11:12:44;;;;;;;5.80;3.05;;;11.20;99.90;;;;;;5032109;28;20386;-71
2022/11/14 11:15:33;;;;;;;5.50;2.47;;;11.30;99.90;;;;;;5032185;28;20037;-71
2022/11/14 11:18:00;;;;;;;4.40;2.28;;;11.30;99.90;;;;;;5030009;28;20026;-71
2022/11/14 11:20:34;;;;;;;4.53;2.28;;;11.30;99.90;;;;;;5031949;28;20041;-70
2022/11/14 11:23:04;;;;;;;2.92;1.40;;;11.20;99.90;;;;;;5031227;28;20537;-72
2022/11/14 11:25:32;;;;;;;3.00;1.13;;;11.20;99.90;;;;;;5032007;28;20042;-71
2022/11/14 11:28:11;;;;;;;2.03;0.77;;;11.30;99.90;;;;;;5031019;28;20631;-69
2022/11/14 11:30:37;;;;;;;1.70;0.68;;;11.30;99.90;;;;;;5031124;28;20041;-71
2022/11/14 11:33:19;;;;;;;1.10;0.68;;;11.40;99.90;;;;;;5031192;28;20041;-71
2022/11/14 11:35:48;;;;;;;1.83;0.60;;;11.50;99.90;;;;;;5031185;28;20026;-71
2022/11/14 11:38:15;;;;;;;1.25;0.68;;;11.50;99.90;;;;;;5031520;28;20451;-71
2022/11/14 11:40:43;;;;;;;1.63;0.73;;;11.60;99.90;;;;;;5030799;28;20501;-76
2022/11/14 11:43:30;;;;;;;1.05;0.68;;;11.60;99.90;;;;;;5029899;28;20052;-71
2022/11/14 11:45:59;;;;;;;2.60;0.70;;;11.60;99.90;;;;;;5030694;28;20486;-72
2022/11/14 11:48:37;;;;;;;1.20;0.75;;;11.60;99.90;;;;;;5031268;28;20542;-70
2022/11/14 11:51:08;;;;;;;1.13;0.60;;;11.60;99.90;;;;;;5030951;28;20029;-70
2022/11/14 11:53:41;;;;;;;2.67;0.98;;;11.60;99.90;;;;;;5031703;28;20136;-72
2022/11/14 11:56:18;;;;;;;1.63;0.70;;;11.60;99.90;;;;;;5031431;28;20037;-70
2022/11/14 11:58:49;;;;;;;3.55;0.90;;;11.70;99.90;;;;;;5030155;28;20796;-72
2022/11/14 12:01:16;;;;;;;1.50;0.70;;;11.70;99.90;;;;;;5031465;28;20094;-69
2022/11/14 12:03:47;;;;;;;1.95;0.65;;;11.80;99.90;;;;;;5030596;28;20053;-77
2022/11/14 12:06:26;;;;;;;25.90;0.80;;;11.80;99.90;;;;;;5031163;28;20072;-71
2022/11/14 12:08:51;;;;;;;2.85;0.60;;;11.90;99.90;;;;;;5029098;28;20044;-72
2022/11/14 12:11:20;;;;;;;1.38;0.70;;;11.80;99.90;;;;;;5030906;28;20124;-71
2022/11/14 12:14:08;;;;;;;1.80;0.65;;;11.90;99.90;;;;;;5029252;28;20091;-71
2022/11/14 12:17:01;;;;;;;2.05;0.73;;;11.90;99.90;;;;;;5029764;28;20079;-72
2022/11/14 12:19:39;;;;;;;2.28;0.90;;;11.80;99.90;;;;;;5030489;28;20040;-69
2022/11/14 12:22:30;;;;;;;1.60;0.70;;;11.90;99.90;;;;;;5030383;28;20049;-70
2022/11/14 12:24:59;;;;;;;2.13;1.00;;;12.00;99.90;;;;;;5030084;28;20079;-71
2022/11/14 12:27:40;;;;;;;1.83;0.93;;;12.00;99.90;;;;;;5028780;28;20037;-71
2022/11/14 12:30:06;;;;;;;2.05;1.00;;;11.90;99.90;;;;;;5030614;28;20065;-72
2022/11/14 12:32:48;;;;;;;2.17;1.00;;;11.90;99.90;;;;;;5029905;28;20069;-72
2022/11/14 12:35:29;;;;;;;2.92;1.30;;;11.90;99.90;;;;;;5030663;28;20034;-73
2022/11/14 12:37:58;;;;;;;4.43;1.15;;;11.80;99.90;;;;;;5029991;28;20107;-71
2022/11/14 12:40:54;;;;;;;2.70;1.30;;;11.90;99.90;;;;;;5030441;28;20051;-74
2022/11/14 12:43:41;;;;;;;3.30;1.10;;;11.90;99.90;;;;;;5029407;28;20034;-72
2022/11/14 12:46:10;;;;;;;3.00;1.33;;;11.80;99.90;;;;;;5029131;28;20037;-71
2022/11/14 12:48:40;;;;;;;3.75;1.20;;;11.70;99.90;;;;;;5030458;28;20079;-71
2022/11/14 12:51:26;;;;;;;5.05;1.70;;;11.80;99.90;;;;;;5029304;28;20068;-70